Puerto Barrios, Guatemala
Current Conditions -  °F | °C
As of 7:00 AM on Saturday 01 Nov 2014 (Local Time) from MHLM Reporting Station
Rain Showers Rain Showers  
Wind Chill: 73°   Ceiling: 8000
Heat Index: 73°   Visibility: 5mi
Dew Point: 73°   Wind: 5mph
Humidity: 100%   Direction: 270°W
Pressure: 30.03"   Gusts: NA
Location:  15.73°N, 88.6°W
Report Text: MHLM 011300Z 27004KT 8000 VCSH SCT020 OVC080 23/23 Q1017 A3003BECMG 6000 -RA
Loading
Personal Weather Stations






























Interactive Weather Map
Tropical Storm Tracking
New forecast layout! Learn more

10-Day Weather Forecast

Advertisements
Track Severe Weather on mobile